CheckWX is a tool to help pilots better visualize weather data.  It is not intended as a substitute for an official pre-flight weather briefing.

07:25:30 UTC

KLAX METAR
Los Angeles International Airport
Los Angeles, California, USA
Current

33 mins ago

KLAX 150653Z 15004KT 10SM FEW014 FEW120 SCT150 BKN200 17/13 A3012 RMK AO2 SLP197 T01720133 $
Observed
Nov-15 @ 06:53 UTC
Wind
  • 150° at 4 KTS
Visibility
10 SM
Flight Rules
VFR
Cloud Levels
  • Few at 1,400' AGL
  • Few at 12,000' AGL
  • Scattered at 15,000' AGL
  • Broken at 20,000' AGL
Temperature
17°C / 63°F
Dewpoint
13°C / 55°F
Humidity
77%
Altimeter
30.12" Hg
Pressure
1020.02 hPa
Previous

2 hours ago

KLAX 150553Z 19003KT 10SM FEW015 BKN150 BKN200 18/13 A3012 RMK AO2 SLP197 T01780128 10189 20172 53007 $
Observed
Nov-15 @ 05:53 UTC
Wind
  • 190° at 3 KTS
Visibility
10 SM
Flight Rules
VFR
Cloud Levels
  • Few at 1,500' AGL
  • Broken at 15,000' AGL
  • Broken at 20,000' AGL
Temperature
18°C / 64°F
Dewpoint
13°C / 55°F
Humidity
73%
Altimeter
30.12" Hg
Pressure
1020.02 hPa
Previous

3 hours ago

KLAX 150453Z 20004KT 10SM FEW015 FEW150 BKN200 18/13 A3011 RMK AO2 SLP194 T01780133 $
Observed
Nov-15 @ 04:53 UTC
Wind
  • 200° at 4 KTS
Visibility
10 SM
Flight Rules
VFR
Cloud Levels
  • Few at 1,500' AGL
  • Few at 15,000' AGL
  • Broken at 20,000' AGL
Temperature
18°C / 64°F
Dewpoint
13°C / 55°F
Humidity
73%
Altimeter
30.11" Hg
Pressure
1019.62 hPa